Time;durP1;ratioP1;P1;durP2;ratioP2;P2;SDS_P1;SDS_P2;PMS_P1;PMS_P2;Temp;Humidity;BMP_temperature;BMP_pressure;BME280_temperature;BME280_humidity;BME280_pressure;Samples;Min_cycle;Max_cycle;Signal;HPM_P1;HPM_P2
2021/07/07 00:00:09;;;;;;;4.30;2.53;;;19.90;99.80;;;;;;5072074;28;20685;-48
2021/07/07 00:02:36;;;;;;;2.30;2.10;;;19.90;99.60;;;;;;5071301;28;20980;-49
2021/07/07 00:05:04;;;;;;;5.43;2.27;;;19.80;99.60;;;;;;5071748;28;20637;-50
2021/07/07 00:07:31;;;;;;;3.47;2.63;;;19.80;99.60;;;;;;5070934;28;20657;-48
2021/07/07 00:09:59;;;;;;;3.70;2.20;;;19.90;99.60;;;;;;5068198;28;21390;-48
2021/07/07 00:12:26;;;;;;;5.23;2.20;;;19.80;99.30;;;;;;5058824;28;20661;-49
2021/07/07 00:14:54;;;;;;;3.17;1.60;;;19.80;99.10;;;;;;5050848;28;20690;-49
2021/07/07 00:17:21;;;;;;;7.40;2.00;;;19.80;98.90;;;;;;5052784;28;21242;-49
2021/07/07 00:19:48;;;;;;;6.90;2.80;;;19.80;98.80;;;;;;5050457;28;20686;-48
2021/07/07 00:22:15;;;;;;;3.50;1.90;;;19.80;98.70;;;;;;5051239;28;20672;-47
2021/07/07 00:24:43;;;;;;;2.50;1.83;;;19.80;98.70;;;;;;5051348;28;20641;-49
2021/07/07 00:27:12;;;;;;;3.90;2.10;;;19.80;98.60;;;;;;5051081;28;20700;-50
2021/07/07 00:29:39;;;;;;;3.70;2.00;;;19.70;98.40;;;;;;5050359;28;21171;-48
2021/07/07 00:32:07;;;;;;;4.97;1.77;;;19.70;98.50;;;;;;5050937;28;20680;-48
2021/07/07 00:34:34;;;;;;;2.30;2.03;;;19.70;98.40;;;;;;5052302;28;20687;-48
2021/07/07 00:37:02;;;;;;;3.60;1.93;;;19.70;98.40;;;;;;5050762;28;20692;-48
2021/07/07 00:39:29;;;;;;;6.80;2.23;;;19.70;98.40;;;;;;5050642;28;20669;-49
2021/07/07 00:41:56;;;;;;;4.60;2.13;;;19.70;98.40;;;;;;5050690;28;20650;-50
2021/07/07 00:44:25;;;;;;;4.03;1.80;;;19.60;98.30;;;;;;5051617;28;20657;-49
2021/07/07 00:46:52;;;;;;;5.53;1.80;;;19.60;98.30;;;;;;5050081;28;20690;-49
2021/07/07 00:49:19;;;;;;;2.90;1.90;;;19.60;98.40;;;;;;5050705;28;20661;-49
2021/07/07 00:51:47;;;;;;;3.20;2.03;;;19.50;98.30;;;;;;5050475;28;20716;-50
2021/07/07 00:54:14;;;;;;;9.47;3.13;;;19.50;98.50;;;;;;5050661;28;20665;-50
2021/07/07 00:56:42;;;;;;;4.00;2.13;;;19.40;98.50;;;;;;5050931;28;20677;-50
2021/07/07 00:59:09;;;;;;;4.70;2.10;;;19.40;98.60;;;;;;5050627;28;20630;-49
2021/07/07 01:01:39;;;;;;;3.53;2.20;;;19.30;98.80;;;;;;5050488;28;20701;-50
2021/07/07 01:04:07;;;;;;;3.90;2.20;;;19.20;98.90;;;;;;5050219;28;20638;-48
2021/07/07 01:06:34;;;;;;;3.07;2.03;;;19.20;98.90;;;;;;5050644;28;20657;-50
2021/07/07 01:09:01;;;;;;;4.57;2.10;;;19.20;98.90;;;;;;5050028;28;20626;-51
2021/07/07 01:11:28;;;;;;;1.87;1.77;;;19.20;99.00;;;;;;5054647;28;20669;-49
2021/07/07 01:13:56;;;;;;;2.27;2.00;;;19.20;99.00;;;;;;5049498;28;20654;-50
2021/07/07 01:16:23;;;;;;;2.07;1.83;;;19.20;99.00;;;;;;5050155;28;20669;-50
2021/07/07 01:18:51;;;;;;;2.80;1.93;;;19.20;99.00;;;;;;5048726;28;20653;-50
2021/07/07 01:21:19;;;;;;;2.80;2.60;;;19.20;99.00;;;;;;5053311;28;21277;-50
2021/07/07 01:23:47;;;;;;;3.40;2.00;;;19.20;99.00;;;;;;5053989;28;20630;-49
2021/07/07 01:26:14;;;;;;;3.33;2.60;;;19.20;99.00;;;;;;5049119;28;20697;-50
2021/07/07 01:28:42;;;;;;;4.93;2.80;;;19.20;99.00;;;;;;5049477;28;21283;-50
2021/07/07 01:31:09;;;;;;;5.70;2.43;;;19.20;99.00;;;;;;5054655;28;20653;-50
2021/07/07 01:33:36;;;;;;;2.93;2.37;;;19.30;99.00;;;;;;5069838;28;20649;-50
2021/07/07 01:36:03;;;;;;;6.10;2.40;;;19.30;98.90;;;;;;5069319;28;21182;-50
2021/07/07 01:38:31;;;;;;;2.10;1.83;;;19.20;98.90;;;;;;5064712;28;20685;-51
2021/07/07 01:40:59;;;;;;;5.50;2.70;;;19.20;99.00;;;;;;5049765;28;20779;-50
2021/07/07 01:43:26;;;;;;;5.20;2.47;;;19.20;99.00;;;;;;5049901;28;20642;-48
2021/07/07 01:45:54;;;;;;;3.80;2.53;;;19.20;99.10;;;;;;5042717;28;20700;-48
2021/07/07 01:48:21;;;;;;;6.63;2.90;;;19.20;99.10;;;;;;5049282;28;20660;-49
2021/07/07 01:50:48;;;;;;;5.30;3.10;;;19.20;99.20;;;;;;5049125;28;20646;-49
2021/07/07 01:53:15;;;;;;;2.17;1.83;;;19.20;99.20;;;;;;5052020;28;21040;-49
2021/07/07 01:55:42;;;;;;;5.77;2.80;;;19.20;99.30;;;;;;5069070;28;20625;-49
2021/07/07 01:58:11;;;;;;;7.20;2.80;;;19.20;99.30;;;;;;5069207;28;20629;-49
2021/07/07 02:00:38;;;;;;;4.10;2.33;;;19.10;99.40;;;;;;5069106;28;20691;-49
2021/07/07 02:03:05;;;;;;;10.10;3.73;;;19.10;99.60;;;;;;5067453;28;20788;-50
2021/07/07 02:05:34;;;;;;;4.17;3.23;;;19.10;99.60;;;;;;5068910;28;20641;-48
2021/07/07 02:08:02;;;;;;;3.60;3.30;;;19.10;99.60;;;;;;5066692;28;20694;-49
2021/07/07 02:10:29;;;;;;;8.77;3.30;;;19.10;99.60;;;;;;5054648;28;20630;-50
2021/07/07 02:12:56;;;;;;;2.60;2.40;;;19.10;99.80;;;;;;5049255;28;20649;-49
2021/07/07 02:15:26;;;;;;;5.90;3.53;;;19.10;99.80;;;;;;5048925;28;20634;-49
2021/07/07 02:17:56;;;;;;;3.57;3.37;;;19.10;99.90;;;;;;5048093;28;20719;-50
2021/07/07 02:20:23;;;;;;;3.53;3.23;;;19.10;99.90;;;;;;5048666;28;20657;-49
2021/07/07 02:22:50;;;;;;;4.00;3.10;;;19.10;99.90;;;;;;5050535;28;20633;-50
2021/07/07 02:25:19;;;;;;;7.53;3.07;;;19.10;99.90;;;;;;5067947;28;20652;-50
2021/07/07 02:27:46;;;;;;;6.80;3.40;;;19.00;99.90;;;;;;5068882;28;20703;-49
2021/07/07 02:30:15;;;;;;;3.37;2.83;;;18.90;99.90;;;;;;5070748;28;21209;-49
2021/07/07 02:32:44;;;;;;;3.33;3.00;;;18.90;99.90;;;;;;5052422;28;20664;-50
2021/07/07 02:35:12;;;;;;;9.20;3.80;;;18.90;99.90;;;;;;5052929;28;20978;-50
2021/07/07 02:37:42;;;;;;;4.60;3.07;;;18.90;99.90;;;;;;5051785;28;20681;-50
2021/07/07 02:40:10;;;;;;;7.03;5.37;;;18.90;99.90;;;;;;5052383;28;20666;-50
2021/07/07 02:42:37;;;;;;;4.47;3.73;;;18.90;99.90;;;;;;5052565;28;21295;-51
2021/07/07 02:45:06;;;;;;;5.33;3.87;;;18.90;99.90;;;;;;5052011;28;20673;-51
2021/07/07 02:47:33;;;;;;;4.87;4.10;;;19.00;99.90;;;;;;5052013;28;21203;-51
2021/07/07 02:50:01;;;;;;;5.50;4.00;;;18.90;99.90;;;;;;5052127;28;21256;-50
2021/07/07 02:52:29;;;;;;;5.33;3.63;;;18.90;99.90;;;;;;5052549;28;21191;-50
2021/07/07 02:54:56;;;;;;;5.90;3.87;;;18.80;99.90;;;;;;5052203;28;20622;-50
2021/07/07 02:57:23;;;;;;;10.33;5.20;;;18.80;99.90;;;;;;5051539;28;20670;-51
2021/07/07 02:59:50;;;;;;;6.83;4.43;;;18.80;99.90;;;;;;5051809;28;21113;-50
2021/07/07 03:02:17;;;;;;;6.03;4.93;;;18.80;99.90;;;;;;5052013;28;20674;-49
2021/07/07 03:04:45;;;;;;;5.97;5.00;;;18.80;99.90;;;;;;5052030;28;20626;-48
2021/07/07 03:07:13;;;;;;;7.97;5.43;;;18.80;99.90;;;;;;5052043;28;20722;-50
2021/07/07 03:09:40;;;;;;;5.57;5.07;;;18.80;99.90;;;;;;5051795;28;20665;-50
2021/07/07 03:12:08;;;;;;;7.00;4.20;;;18.80;99.90;;;;;;5051822;28;20653;-49
2021/07/07 03:14:35;;;;;;;5.37;4.07;;;18.80;99.90;;;;;;5051765;28;20669;-49
2021/07/07 03:17:02;;;;;;;4.20;3.80;;;18.80;99.90;;;;;;5051856;28;20705;-49
2021/07/07 03:19:29;;;;;;;5.93;4.17;;;18.80;99.90;;;;;;5051313;28;20658;-50
2021/07/07 03:21:57;;;;;;;4.23;3.80;;;18.80;99.90;;;;;;5050915;28;20697;-49
2021/07/07 03:24:25;;;;;;;17.90;5.43;;;18.80;99.90;;;;;;5051820;28;20642;-48
2021/07/07 03:26:52;;;;;;;6.00;4.47;;;18.80;99.90;;;;;;5050645;28;20697;-48
2021/07/07 03:29:19;;;;;;;5.37;3.90;;;18.80;99.90;;;;;;5059147;28;20656;-50
2021/07/07 03:31:47;;;;;;;6.07;3.90;;;18.80;99.90;;;;;;5061655;28;20715;-49
2021/07/07 03:34:14;;;;;;;4.90;4.50;;;18.80;99.90;;;;;;5051821;28;20680;-48
2021/07/07 03:36:41;;;;;;;7.23;4.47;;;18.80;99.90;;;;;;5051191;28;20670;-48
2021/07/07 03:39:08;;;;;;;4.13;3.57;;;18.80;99.90;;;;;;5050405;28;20660;-49
2021/07/07 03:41:39;;;;;;;5.20;4.67;;;18.80;99.90;;;;;;5050523;28;20689;-49
2021/07/07 03:44:06;;;;;;;10.53;3.53;;;18.80;99.90;;;;;;5051183;28;20695;-49
2021/07/07 03:46:33;;;;;;;7.50;3.83;;;18.70;99.90;;;;;;5050875;28;21087;-48
2021/07/07 03:49:01;;;;;;;9.60;3.67;;;18.60;99.90;;;;;;5050525;28;20657;-49
2021/07/07 03:51:28;;;;;;;4.00;3.27;;;18.50;99.90;;;;;;5050663;28;21476;-48
2021/07/07 03:53:55;;;;;;;7.03;3.53;;;18.50;99.90;;;;;;5054782;28;20670;-48
2021/07/07 03:56:22;;;;;;;8.47;4.93;;;18.50;99.90;;;;;;5050099;28;21249;-48
2021/07/07 03:58:51;;;;;;;7.80;3.70;;;18.50;99.90;;;;;;5051301;28;20657;-48
2021/07/07 04:01:18;;;;;;;4.40;4.00;;;18.50;99.90;;;;;;5057811;28;20656;-48
2021/07/07 04:03:45;;;;;;;5.60;3.63;;;18.50;99.90;;;;;;5067414;28;20653;-48
2021/07/07 04:06:13;;;;;;;6.87;3.37;;;18.50;99.90;;;;;;5050384;28;20763;-49
2021/07/07 04:08:40;;;;;;;4.13;3.73;;;18.50;99.90;;;;;;5050663;28;20682;-49
2021/07/07 04:11:08;;;;;;;5.53;3.60;;;18.40;99.90;;;;;;5065521;28;20653;-49
2021/07/07 04:13:35;;;;;;;4.10;3.07;;;18.40;99.90;;;;;;5050996;28;20630;-49
2021/07/07 04:16:03;;;;;;;5.50;3.40;;;18.40;99.90;;;;;;5061622;28;21193;-48
2021/07/07 04:18:31;;;;;;;4.10;3.10;;;18.40;99.90;;;;;;5056109;28;20631;-49
2021/07/07 04:20:58;;;;;;;3.83;3.20;;;18.40;99.90;;;;;;5068654;28;21033;-49
2021/07/07 04:23:25;;;;;;;8.97;4.07;;;18.40;99.90;;;;;;5070458;28;20725;-48
2021/07/07 04:25:52;;;;;;;5.03;3.63;;;18.50;99.90;;;;;;5069829;28;20692;-48
2021/07/07 04:28:19;;;;;;;4.77;3.20;;;18.40;99.90;;;;;;5070241;28;21205;-50
2021/07/07 04:30:47;;;;;;;6.33;3.90;;;18.40;99.90;;;;;;5070050;28;20661;-49
2021/07/07 04:33:15;;;;;;;7.13;3.80;;;18.40;99.90;;;;;;5051048;28;20665;-49
2021/07/07 04:35:43;;;;;;;5.77;4.60;;;18.40;99.90;;;;;;5050663;28;20622;-50
2021/07/07 04:38:10;;;;;;;4.13;3.47;;;18.40;99.90;;;;;;5050353;28;20697;-49
2021/07/07 04:40:37;;;;;;;5.00;3.60;;;18.50;99.90;;;;;;5050154;28;20653;-49
2021/07/07 04:43:04;;;;;;;4.43;3.67;;;18.50;99.90;;;;;;5049984;28;20731;-49
2021/07/07 04:45:32;;;;;;;3.57;3.13;;;18.50;99.90;;;;;;5049886;28;20657;-50
2021/07/07 04:47:59;;;;;;;3.33;3.07;;;18.50;99.70;;;;;;5049803;28;20662;-51
2021/07/07 04:50:28;;;;;;;3.33;3.03;;;18.40;99.70;;;;;;5049800;28;21055;-49
2021/07/07 04:52:55;;;;;;;4.37;3.00;;;18.50;99.80;;;;;;5049262;28;20625;-50
2021/07/07 04:55:22;;;;;;;5.47;4.70;;;18.40;99.70;;;;;;5049831;28;20626;-49
2021/07/07 04:57:49;;;;;;;4.50;4.10;;;18.40;99.70;;;;;;5050027;28;21054;-50
2021/07/07 05:00:18;;;;;;;3.50;3.23;;;18.40;99.70;;;;;;5049864;28;20649;-49
2021/07/07 05:02:45;;;;;;;3.97;3.57;;;18.30;99.80;;;;;;5049937;28;20758;-50
2021/07/07 05:05:13;;;;;;;3.43;3.00;;;18.30;99.80;;;;;;5050007;28;21149;-50
2021/07/07 05:07:42;;;;;;;2.57;2.37;;;18.40;99.90;;;;;;5051044;28;21026;-49
2021/07/07 05:10:10;;;;;;;4.87;2.67;;;18.40;99.90;;;;;;5069114;28;20659;-49
2021/07/07 05:12:38;;;;;;;4.70;3.40;;;18.40;99.70;;;;;;5069687;28;20621;-49
2021/07/07 05:15:06;;;;;;;5.33;3.40;;;18.40;99.60;;;;;;5061798;28;20719;-49
2021/07/07 05:17:33;;;;;;;3.67;3.33;;;18.50;99.60;;;;;;5049327;28;20665;-48
2021/07/07 05:20:00;;;;;;;7.90;3.60;;;18.50;99.50;;;;;;5068447;28;20660;-50
2021/07/07 05:22:28;;;;;;;6.20;3.50;;;18.50;99.50;;;;;;5063251;28;20682;-50
2021/07/07 05:24:57;;;;;;;3.00;2.40;;;18.50;99.60;;;;;;5049622;28;20668;-50
2021/07/07 05:27:24;;;;;;;4.87;3.43;;;18.50;99.40;;;;;;5049484;28;20700;-49
2021/07/07 05:29:51;;;;;;;3.93;3.60;;;18.50;99.40;;;;;;5049164;28;21233;-50
2021/07/07 05:32:21;;;;;;;5.70;3.40;;;18.50;99.40;;;;;;5049088;28;20645;-50
2021/07/07 05:34:49;;;;;;;4.97;3.77;;;18.50;99.40;;;;;;5056168;28;20621;-50
2021/07/07 05:37:20;;;;;;;6.13;3.37;;;18.50;99.30;;;;;;5068953;28;20684;-49
2021/07/07 05:39:48;;;;;;;3.53;3.23;;;18.50;99.30;;;;;;5068682;28;21149;-49
2021/07/07 05:42:18;;;;;;;4.10;3.70;;;18.50;99.20;;;;;;5053015;28;20689;-49
2021/07/07 05:44:46;;;;;;;4.97;2.90;;;18.50;99.30;;;;;;5049059;28;20644;-49
2021/07/07 05:47:13;;;;;;;4.97;3.43;;;18.50;99.20;;;;;;5049697;28;21245;-49
2021/07/07 05:49:41;;;;;;;6.47;4.37;;;18.50;99.20;;;;;;5049230;28;20747;-50
2021/07/07 05:52:08;;;;;;;9.47;3.90;;;18.50;99.20;;;;;;5049136;28;20649;-50
2021/07/07 05:54:35;;;;;;;4.60;3.50;;;18.60;99.10;;;;;;5048985;28;21197;-49
2021/07/07 05:57:03;;;;;;;4.03;3.63;;;18.60;99.10;;;;;;5049641;28;20684;-49
2021/07/07 05:59:32;;;;;;;8.40;3.83;;;18.60;98.80;;;;;;5049452;28;20662;-49
2021/07/07 06:01:59;;;;;;;5.80;3.70;;;18.60;98.80;;;;;;5049005;28;20630;-50
2021/07/07 06:04:26;;;;;;;4.53;3.60;;;18.60;98.70;;;;;;5050132;28;20670;-51
2021/07/07 06:06:53;;;;;;;8.30;4.63;;;18.60;98.80;;;;;;5053148;28;21013;-50
2021/07/07 06:09:20;;;;;;;6.00;4.60;;;18.60;98.90;;;;;;5058853;28;20741;-50
2021/07/07 06:11:48;;;;;;;6.90;5.63;;;18.70;98.90;;;;;;5057134;28;20705;-50
2021/07/07 06:14:15;;;;;;;7.20;5.43;;;18.70;98.90;;;;;;5053420;28;20661;-50
2021/07/07 06:16:43;;;;;;;6.03;5.27;;;18.70;99.00;;;;;;5051638;28;20721;-49
2021/07/07 06:19:11;;;;;;;7.30;6.60;;;18.70;98.80;;;;;;5052841;28;20672;-49
2021/07/07 06:21:38;;;;;;;7.43;6.60;;;18.70;98.80;;;;;;5053067;28;20820;-50
2021/07/07 06:24:06;;;;;;;10.23;6.50;;;18.70;98.80;;;;;;5052719;28;21089;-49
2021/07/07 06:26:34;;;;;;;9.63;6.80;;;18.70;98.80;;;;;;5053418;28;20653;-50
2021/07/07 06:29:04;;;;;;;11.80;9.47;;;18.70;98.90;;;;;;5053690;28;20626;-50
2021/07/07 06:31:32;;;;;;;9.27;8.03;;;18.80;98.90;;;;;;5052308;28;20629;-50
2021/07/07 06:34:00;;;;;;;8.47;7.67;;;18.80;98.90;;;;;;5052281;28;20649;-49
2021/07/07 06:36:28;;;;;;;11.73;8.93;;;18.90;98.90;;;;;;5052282;28;21101;-51
2021/07/07 06:38:55;;;;;;;7.67;6.97;;;18.90;98.90;;;;;;5052354;28;20654;-49
2021/07/07 06:41:22;;;;;;;8.00;7.20;;;19.00;98.70;;;;;;5051917;28;20661;-50
2021/07/07 06:43:49;;;;;;;7.47;6.47;;;19.10;98.60;;;;;;5052496;28;20689;-49
2021/07/07 06:46:16;;;;;;;7.63;6.17;;;19.10;98.50;;;;;;5052011;28;20719;-50
2021/07/07 06:48:44;;;;;;;10.87;6.50;;;19.10;98.10;;;;;;5052149;28;20662;-50
2021/07/07 06:51:12;;;;;;;7.70;6.67;;;19.10;98.10;;;;;;5051958;28;21106;-50
2021/07/07 06:53:39;;;;;;;7.17;6.50;;;19.20;98.00;;;;;;5052072;28;20760;-50
2021/07/07 06:56:07;;;;;;;5.97;5.47;;;19.20;97.90;;;;;;5052098;28;20682;-49
2021/07/07 06:58:34;;;;;;;9.07;5.97;;;19.20;97.80;;;;;;5051596;28;20818;-48
2021/07/07 07:01:01;;;;;;;5.77;5.13;;;19.20;97.50;;;;;;5051804;28;20665;-49
2021/07/07 07:03:28;;;;;;;11.60;6.20;;;19.20;97.20;;;;;;5051493;28;20662;-49
2021/07/07 07:05:56;;;;;;;6.43;5.10;;;19.10;97.20;;;;;;5051957;28;20665;-49
2021/07/07 07:08:24;;;;;;;8.93;4.57;;;19.10;97.50;;;;;;5052411;28;21167;-49
2021/07/07 07:10:52;;;;;;;4.53;4.03;;;19.20;97.60;;;;;;5052296;28;20653;-49
2021/07/07 07:13:20;;;;;;;4.47;4.07;;;19.20;97.60;;;;;;5052504;28;20756;-49
2021/07/07 07:15:47;;;;;;;5.17;3.53;;;19.20;97.40;;;;;;5046315;28;20690;-50
2021/07/07 07:18:15;;;;;;;6.60;5.27;;;19.20;97.30;;;;;;5032221;28;20626;-48
2021/07/07 07:20:42;;;;;;;5.20;3.00;;;19.20;97.20;;;;;;5031549;28;20619;-49
2021/07/07 07:23:10;;;;;;;5.30;3.70;;;19.20;97.20;;;;;;5031706;28;20662;-49
2021/07/07 07:25:39;;;;;;;4.47;3.00;;;19.20;97.20;;;;;;5031670;28;20688;-48
2021/07/07 07:28:06;;;;;;;6.07;2.87;;;19.20;97.30;;;;;;5031805;28;20674;-49
2021/07/07 07:30:34;;;;;;;6.23;2.67;;;19.30;97.30;;;;;;5030939;28;20659;-50
2021/07/07 07:33:01;;;;;;;3.20;2.90;;;19.40;97.10;;;;;;5031897;28;20662;-48
2021/07/07 07:35:28;;;;;;;3.63;3.33;;;19.50;97.10;;;;;;5030991;28;20674;-49
2021/07/07 07:38:02;;;;;;;5.87;2.83;;;19.70;96.90;;;;;;5031282;28;20634;-49
2021/07/07 07:40:35;;;;;;;4.30;2.10;;;19.80;96.90;;;;;;5031506;28;20981;-49
2021/07/07 07:43:04;;;;;;;2.77;2.50;;;19.90;96.80;;;;;;5031294;28;20734;-48
2021/07/07 07:45:31;;;;;;;5.93;2.60;;;20.00;96.10;;;;;;5041583;28;20689;-49
2021/07/07 07:47:59;;;;;;;6.17;3.17;;;20.10;96.40;;;;;;5051285;28;20634;-49
2021/07/07 07:50:26;;;;;;;2.70;2.50;;;20.20;95.80;;;;;;5050214;28;20652;-49
2021/07/07 07:52:53;;;;;;;2.40;2.03;;;20.30;95.70;;;;;;5050496;28;20661;-48
2021/07/07 07:55:21;;;;;;;4.63;2.40;;;20.50;95.50;;;;;;5050686;28;21430;-49
2021/07/07 07:57:49;;;;;;;5.13;3.60;;;20.70;94.80;;;;;;5051258;28;20654;-48
2021/07/07 08:00:20;;;;;;;2.70;2.07;;;20.80;94.40;;;;;;5050843;28;20622;-49
2021/07/07 08:02:48;;;;;;;2.50;1.90;;;20.90;93.80;;;;;;5050813;28;20737;-49
2021/07/07 08:05:15;;;;;;;6.20;2.23;;;21.10;93.30;;;;;;5050063;28;21230;-49
2021/07/07 08:07:43;;;;;;;2.97;1.83;;;21.20;93.30;;;;;;5050176;28;20654;-50
2021/07/07 08:10:11;;;;;;;3.50;2.27;;;21.40;93.10;;;;;;5050557;28;20672;-49
2021/07/07 08:12:39;;;;;;;5.53;2.47;;;21.30;92.50;;;;;;5049925;28;20634;-48
2021/07/07 08:15:07;;;;;;;2.97;2.00;;;21.30;93.00;;;;;;5050278;28;20669;-49
2021/07/07 08:17:36;;;;;;;4.10;1.73;;;21.30;92.50;;;;;;5050109;28;21065;-50
2021/07/07 08:20:04;;;;;;;5.03;2.40;;;21.30;92.70;;;;;;5050289;28;20626;-49
2021/07/07 08:22:32;;;;;;;2.80;2.10;;;21.40;92.80;;;;;;5050549;28;20626;-49
2021/07/07 08:24:59;;;;;;;4.47;2.33;;;21.50;92.30;;;;;;5050453;28;20662;-48
2021/07/07 08:27:26;;;;;;;2.20;2.00;;;21.50;92.20;;;;;;5031750;28;20674;-48
2021/07/07 08:29:53;;;;;;;3.00;2.10;;;21.60;92.00;;;;;;5049624;28;20661;-49
2021/07/07 08:32:21;;;;;;;3.10;2.00;;;21.50;92.00;;;;;;5050652;28;20626;-49
2021/07/07 08:34:49;;;;;;;1.97;1.77;;;21.50;92.50;;;;;;5050523;28;20626;-49
2021/07/07 08:37:17;;;;;;;3.90;2.43;;;21.50;92.40;;;;;;5050193;28;20700;-49
2021/07/07 08:39:44;;;;;;;6.87;2.03;;;21.50;92.10;;;;;;5050601;28;20701;-49
2021/07/07 08:42:11;;;;;;;2.80;1.67;;;21.60;91.90;;;;;;5050543;28;20658;-49
2021/07/07 08:44:38;;;;;;;3.13;2.23;;;21.70;91.80;;;;;;5050911;28;20798;-49
2021/07/07 08:47:07;;;;;;;6.63;2.40;;;21.70;91.40;;;;;;5049486;28;20657;-49
2021/07/07 08:49:34;;;;;;;5.60;3.87;;;21.70;91.40;;;;;;5049691;28;20638;-49
2021/07/07 08:52:03;;;;;;;2.23;1.90;;;21.70;91.00;;;;;;5048999;28;21147;-47
2021/07/07 08:54:31;;;;;;;3.97;2.40;;;21.70;90.90;;;;;;5049668;28;20618;-49
2021/07/07 08:57:04;;;;;;;5.93;2.03;;;21.70;90.90;;;;;;5050356;28;20653;-47
2021/07/07 08:59:31;;;;;;;5.37;2.00;;;21.70;90.60;;;;;;5050392;28;20658;-48
2021/07/07 09:02:05;;;;;;;2.30;2.10;;;21.60;91.00;;;;;;5050162;28;21190;-48
2021/07/07 09:04:33;;;;;;;4.20;2.20;;;21.50;91.50;;;;;;5051382;28;20799;-49
2021/07/07 09:07:06;;;;;;;3.70;2.20;;;21.50;91.20;;;;;;5050727;28;20658;-49
2021/07/07 09:09:37;;;;;;;4.20;1.80;;;21.60;91.00;;;;;;5050514;28;20654;-50
2021/07/07 09:12:15;;;;;;;2.47;1.47;;;21.70;91.10;;;;;;5049908;28;20665;-51
2021/07/07 09:14:43;;;;;;;2.43;1.93;;;21.80;91.20;;;;;;5049522;28;21258;-49
2021/07/07 09:17:12;;;;;;;4.30;1.67;;;21.90;91.20;;;;;;5049513;28;20689;-50
2021/07/07 09:19:39;;;;;;;2.77;1.90;;;21.90;90.80;;;;;;5049130;28;20654;-52
2021/07/07 09:22:08;;;;;;;2.70;2.10;;;22.00;90.50;;;;;;5049205;28;20633;-49
2021/07/07 09:24:36;;;;;;;6.03;1.87;;;22.10;89.30;;;;;;5049036;28;20650;-49
2021/07/07 09:27:05;;;;;;;4.30;1.60;;;22.30;89.20;;;;;;5049008;28;21083;-51
2021/07/07 09:29:33;;;;;;;2.93;1.73;;;22.40;88.90;;;;;;5049630;28;20665;-51
2021/07/07 09:32:04;;;;;;;3.93;1.97;;;22.70;88.20;;;;;;5049119;28;20676;-50
2021/07/07 09:34:31;;;;;;;3.13;2.20;;;22.80;85.10;;;;;;5048274;28;20650;-50
2021/07/07 09:36:58;;;;;;;2.50;1.70;;;22.90;86.50;;;;;;5049304;28;20701;-50
2021/07/07 09:39:27;;;;;;;3.73;2.23;;;23.00;85.80;;;;;;5050121;28;20662;-51
2021/07/07 09:41:56;;;;;;;3.97;1.90;;;23.00;84.90;;;;;;5052856;28;20677;-49
2021/07/07 09:44:23;;;;;;;3.13;1.87;;;23.10;84.60;;;;;;5053150;28;20690;-50
2021/07/07 09:46:50;;;;;;;3.40;1.63;;;23.10;83.70;;;;;;5052394;28;20657;-49
2021/07/07 09:49:17;;;;;;;3.33;2.10;;;23.00;82.80;;;;;;5053263;28;20672;-48
2021/07/07 09:51:47;;;;;;;2.83;1.43;;;23.00;82.80;;;;;;5053017;28;20633;-49
2021/07/07 09:54:15;;;;;;;2.23;1.63;;;22.90;83.00;;;;;;5053320;28;21017;-49
2021/07/07 09:56:43;;;;;;;3.90;2.03;;;22.90;82.40;;;;;;5053218;28;20688;-50
2021/07/07 09:59:11;;;;;;;2.73;1.90;;;22.90;82.80;;;;;;5052992;28;20626;-50
2021/07/07 10:01:38;;;;;;;1.97;1.87;;;22.90;82.80;;;;;;5052908;28;20973;-49
2021/07/07 10:04:07;;;;;;;3.97;1.97;;;22.90;82.80;;;;;;5052912;28;21344;-49
2021/07/07 10:06:35;;;;;;;3.17;2.27;;;22.90;83.10;;;;;;5052851;28;20692;-50
2021/07/07 10:09:02;;;;;;;3.30;2.10;;;22.90;82.70;;;;;;5053082;28;20695;-48
2021/07/07 10:11:29;;;;;;;2.90;2.10;;;22.90;82.00;;;;;;5052968;28;20661;-50
2021/07/07 10:13:58;;;;;;;2.03;1.70;;;22.90;82.40;;;;;;5052816;28;20700;-50
2021/07/07 10:16:25;;;;;;;4.30;2.37;;;23.00;79.50;;;;;;5052890;28;20700;-50
2021/07/07 10:18:52;;;;;;;2.60;1.70;;;23.00;80.50;;;;;;5052998;28;20733;-49
2021/07/07 10:21:19;;;;;;;1.60;1.50;;;22.90;82.10;;;;;;5052631;28;20679;-49
2021/07/07 10:23:47;;;;;;;7.10;2.40;;;23.00;82.50;;;;;;5053312;28;21268;-50
2021/07/07 10:26:14;;;;;;;2.03;1.77;;;23.00;82.20;;;;;;5052735;28;20701;-49
2021/07/07 10:28:41;;;;;;;3.60;2.23;;;23.00;80.50;;;;;;5051737;28;20656;-50
2021/07/07 10:31:10;;;;;;;4.13;2.10;;;23.00;80.70;;;;;;5052868;28;20669;-50
2021/07/07 10:33:38;;;;;;;2.60;2.27;;;22.90;81.40;;;;;;5052605;28;20636;-50
2021/07/07 10:36:16;;;;;;;5.10;2.80;;;22.70;82.00;;;;;;5052557;28;20766;-50
2021/07/07 10:38:50;;;;;;;2.90;2.60;;;22.80;82.40;;;;;;5053054;28;20629;-50
2021/07/07 10:41:17;;;;;;;3.10;2.10;;;22.80;81.90;;;;;;5052208;28;21256;-48
2021/07/07 10:43:45;;;;;;;3.83;1.67;;;22.80;79.30;;;;;;5052998;28;20637;-50
2021/07/07 10:46:13;;;;;;;3.87;2.77;;;22.90;79.80;;;;;;5051627;28;21049;-52
2021/07/07 10:48:40;;;;;;;5.33;2.23;;;22.90;81.30;;;;;;5052176;28;20665;-49
2021/07/07 10:51:26;;;;;;;2.90;2.03;;;23.00;81.50;;;;;;5051861;28;20664;-50
2021/07/07 10:53:54;;;;;;;4.40;2.30;;;23.00;80.70;;;;;;5051599;28;21174;-50
2021/07/07 10:56:43;;;;;;;5.80;2.73;;;23.10;81.50;;;;;;5052036;28;20768;-50
2021/07/07 10:59:29;;;;;;;2.40;1.80;;;23.10;80.20;;;;;;5052161;28;20618;-50
2021/07/07 11:02:03;;;;;;;5.77;1.70;;;23.20;79.40;;;;;;5051926;28;20625;-50
2021/07/07 11:04:37;;;;;;;2.90;1.70;;;23.20;78.00;;;;;;5051748;28;20982;-50
2021/07/07 11:07:26;;;;;;;3.10;2.20;;;23.20;77.70;;;;;;5051944;28;20650;-50
2021/07/07 11:09:53;;;;;;;5.17;2.00;;;23.20;78.20;;;;;;5052048;28;20650;-50
2021/07/07 11:12:21;;;;;;;3.87;2.47;;;23.20;77.20;;;;;;5051574;28;20741;-50
2021/07/07 11:15:02;;;;;;;2.67;1.80;;;23.30;76.90;;;;;;5051340;28;20653;-49
2021/07/07 11:17:33;;;;;;;3.60;1.63;;;23.30;75.70;;;;;;5051154;28;20665;-47
2021/07/07 11:20:04;;;;;;;7.37;1.70;;;23.30;75.40;;;;;;5051610;28;20657;-49
2021/07/07 11:22:31;;;;;;;4.57;2.40;;;23.40;71.70;;;;;;5051276;28;21008;-49
2021/07/07 11:25:03;;;;;;;5.30;1.83;;;23.40;71.10;;;;;;5051282;28;20681;-49
2021/07/07 11:27:30;;;;;;;3.60;1.70;;;23.50;69.90;;;;;;5051297;28;20738;-50
2021/07/07 11:29:57;;;;;;;6.47;2.30;;;23.70;68.90;;;;;;5050884;28;20660;-49
2021/07/07 11:32:29;;;;;;;3.60;1.80;;;23.90;68.70;;;;;;5051516;28;20658;-50
2021/07/07 11:34:58;;;;;;;4.27;2.07;;;24.00;68.10;;;;;;5051461;28;20657;-50
2021/07/07 11:37:27;;;;;;;3.90;1.87;;;24.00;67.50;;;;;;5050889;28;20690;-49
2021/07/07 11:40:02;;;;;;;2.93;1.60;;;24.00;65.90;;;;;;5050991;28;20654;-50
2021/07/07 11:42:30;;;;;;;4.80;1.70;;;24.10;65.90;;;;;;5051196;28;20661;-50
2021/07/07 11:44:57;;;;;;;4.30;2.03;;;24.20;66.60;;;;;;5051210;28;21072;-51
2021/07/07 11:47:27;;;;;;;4.80;2.10;;;24.20;66.00;;;;;;5051403;28;20666;-51
2021/07/07 11:50:07;;;;;;;3.50;2.00;;;24.20;66.50;;;;;;5050732;28;20669;-50
2021/07/07 11:52:34;;;;;;;2.83;1.83;;;24.30;64.60;;;;;;5051516;28;20650;-49
2021/07/07 11:55:02;;;;;;;4.53;2.20;;;24.20;63.50;;;;;;5051044;28;20650;-50
2021/07/07 11:57:29;;;;;;;1.90;1.70;;;24.20;64.10;;;;;;5051045;28;20723;-50
2021/07/07 11:59:56;;;;;;;9.07;2.13;;;24.20;65.80;;;;;;5050836;28;20665;-51
2021/07/07 12:02:23;;;;;;;4.20;2.13;;;24.20;66.80;;;;;;5049945;28;20634;-51
2021/07/07 12:04:51;;;;;;;4.70;1.83;;;24.30;66.10;;;;;;5050548;28;20618;-50
2021/07/07 12:07:21;;;;;;;2.20;1.67;;;24.40;65.50;;;;;;5050326;28;20678;-51
2021/07/07 12:09:49;;;;;;;3.20;1.80;;;24.50;63.60;;;;;;5050954;28;20637;-50
2021/07/07 12:12:16;;;;;;;5.57;2.17;;;24.50;62.60;;;;;;5050976;28;20630;-51
2021/07/07 12:14:43;;;;;;;3.53;1.63;;;24.40;61.30;;;;;;5050670;28;20662;-50
2021/07/07 12:17:12;;;;;;;4.23;2.00;;;24.30;60.50;;;;;;5050247;28;20693;-50
2021/07/07 12:19:41;;;;;;;6.63;2.37;;;24.30;61.40;;;;;;5050938;28;20650;-50
2021/07/07 12:22:09;;;;;;;4.87;2.87;;;24.30;61.80;;;;;;5050285;28;20617;-50
2021/07/07 12:24:39;;;;;;;3.90;2.20;;;24.30;60.00;;;;;;5050605;28;20784;-50
2021/07/07 12:27:07;;;;;;;2.53;1.67;;;24.30;61.00;;;;;;5050110;28;20748;-51
2021/07/07 12:29:35;;;;;;;3.90;2.20;;;24.40;60.80;;;;;;5050474;28;20767;-50
2021/07/07 12:32:04;;;;;;;2.40;1.77;;;24.50;61.30;;;;;;5050200;28;20656;-51
2021/07/07 12:34:32;;;;;;;4.20;2.10;;;24.50;60.10;;;;;;5050863;28;20965;-50
2021/07/07 12:37:00;;;;;;;4.03;2.13;;;24.50;57.90;;;;;;5049616;28;20642;-49
2021/07/07 12:39:28;;;;;;;9.93;2.00;;;24.50;57.80;;;;;;5050055;28;20753;-50
2021/07/07 12:41:59;;;;;;;3.33;2.40;;;24.50;56.70;;;;;;5049714;28;20933;-50
2021/07/07 12:44:28;;;;;;;2.53;1.73;;;24.50;56.40;;;;;;5049991;28;20682;-51
2021/07/07 12:46:57;;;;;;;4.47;2.40;;;24.60;56.40;;;;;;5049536;28;20702;-51
2021/07/07 12:49:41;;;;;;;6.13;2.47;;;24.70;55.90;;;;;;5049730;28;20669;-49